Time;durP1;ratioP1;P1;durP2;ratioP2;P2;SDS_P1;SDS_P2;PMS_P1;PMS_P2;Temp;Humidity;BMP_temperature;BMP_pressure;BME280_temperature;BME280_humidity;BME280_pressure;Samples;Min_cycle;Max_cycle;Signal;HPM_P1;HPM_P2
2021/09/08 00:00:14;;;;;;;;;;;;;;;13.69;75.09;100429.25;5117714;28;19958;-73
2021/09/08 00:02:43;;;;;;;;;;;;;;;13.69;74.94;100424.13;5117200;28;19927;-73
2021/09/08 00:05:12;;;;;;;;;;;;;;;13.69;74.87;100426.69;5117490;28;19924;-73
2021/09/08 00:07:41;;;;;;;;;;;;;;;13.69;74.97;100429.25;5117848;28;19927;-73
2021/09/08 00:10:10;;;;;;;;;;;;;;;13.64;74.64;100426.69;5117541;28;19924;-73
2021/09/08 00:12:39;;;;;;;;;;;;;;;13.58;74.80;100421.53;5117073;28;20270;-73
2021/09/08 00:15:10;;;;;;;;;;;;;;;13.55;74.76;100420.72;5117116;28;19931;-73
2021/09/08 00:17:40;;;;;;;;;;;;;;;13.56;75.12;100417.28;5117410;28;20369;-73
2021/09/08 00:20:10;;;;;;;;;;;;;;;13.59;74.91;100427.53;5117305;28;20022;-73
2021/09/08 00:22:38;;;;;;;;;;;;;;;13.47;74.63;100424.97;5116973;28;19985;-73
2021/09/08 00:25:08;;;;;;;;;;;;;;;13.41;75.33;100419.00;5116783;28;19963;-73
2021/09/08 00:27:38;;;;;;;;;;;;;;;13.29;75.41;100419.00;5117238;28;19975;-73
2021/09/08 00:30:13;;;;;;;;;;;;;;;13.33;75.64;100420.72;5116846;28;19927;-73
2021/09/08 00:32:44;;;;;;;;;;;;;;;13.33;75.61;100418.16;5116889;28;19924;-73
2021/09/08 00:35:13;;;;;;;;;;;;;;;13.35;75.39;100418.16;5115731;28;20305;-73
2021/09/08 00:37:43;;;;;;;;;;;;;;;13.37;75.26;100417.28;5115420;28;20289;-74
2021/09/08 00:40:13;;;;;;;;;;;;;;;13.28;74.94;100414.75;5116724;28;19923;-73
2021/09/08 00:42:42;;;;;;;;;;;;;;;13.14;75.26;100413.88;5116588;28;19931;-73
2021/09/08 00:45:14;;;;;;;;;;;;;;;13.00;74.97;100410.44;5116414;28;19928;-73
2021/09/08 00:47:42;;;;;;;;;;;;;;;12.92;75.74;100417.25;5116515;28;20293;-73
2021/09/08 00:50:11;;;;;;;;;;;;;;;12.98;75.95;100417.22;5116615;28;20026;-73
2021/09/08 00:52:42;;;;;;;;;;;;;;;12.97;75.88;100420.66;5116425;28;19924;-73
2021/09/08 00:55:12;;;;;;;;;;;;;;;12.94;75.98;100415.53;5116219;28;20385;-73
2021/09/08 00:57:41;;;;;;;;;;;;;;;12.97;76.02;100415.53;5116174;28;19935;-73
2021/09/08 01:00:10;;;;;;;;;;;;;;;13.06;75.95;100413.00;5116239;28;19959;-73
2021/09/08 01:02:42;;;;;;;;;;;;;;;13.12;75.93;100425.84;5116232;28;19950;-73
2021/09/08 01:05:15;;;;;;;;;;;;;;;13.19;75.98;100419.88;5116089;28;20404;-73
2021/09/08 01:07:45;;;;;;;;;;;;;;;13.23;75.91;100419.00;5116056;28;19924;-73
2021/09/08 01:10:13;;;;;;;;;;;;;;;13.25;75.92;100427.56;5116002;28;19931;-73
2021/09/08 01:12:43;;;;;;;;;;;;;;;13.22;76.23;100424.97;5115855;28;19924;-73
2021/09/08 01:15:13;;;;;;;;;;;;;;;13.24;76.24;100425.88;5115870;28;19934;-73
2021/09/08 01:17:44;;;;;;;;;;;;;;;13.27;76.13;100425.84;5115900;28;19923;-73
2021/09/08 01:20:14;;;;;;;;;;;;;;;13.30;75.96;100425.84;5115851;28;19924;-73
2021/09/08 01:22:47;;;;;;;;;;;;;;;13.25;76.30;100426.69;5116218;28;19924;-73
2021/09/08 01:25:17;;;;;;;;;;;;;;;13.23;76.20;100423.28;5115535;28;19973;-72
2021/09/08 01:27:46;;;;;;;;;;;;;;;13.24;76.05;100425.88;5115717;28;19923;-73
2021/09/08 01:30:18;;;;;;;;;;;;;;;13.23;76.05;100426.69;5115577;28;19923;-73
2021/09/08 01:32:48;;;;;;;;;;;;;;;13.19;76.22;100425.00;5115555;28;19924;-73
2021/09/08 01:35:17;;;;;;;;;;;;;;;13.23;76.50;100424.13;5115564;28;19924;-73
2021/09/08 01:37:48;;;;;;;;;;;;;;;13.28;76.56;100421.56;5115618;28;19969;-73
2021/09/08 01:40:18;;;;;;;;;;;;;;;13.28;76.21;100421.56;5115756;28;19931;-73
2021/09/08 01:42:47;;;;;;;;;;;;;;;13.24;76.10;100420.72;5115687;28;20423;-73
2021/09/08 01:45:17;;;;;;;;;;;;;;;13.22;76.05;100426.72;5115570;28;19924;-73
2021/09/08 01:47:46;;;;;;;;;;;;;;;13.22;76.32;100417.28;5115931;28;20423;-73
2021/09/08 01:50:15;;;;;;;;;;;;;;;13.22;76.26;100427.53;5115235;28;20022;-73
2021/09/08 01:52:43;;;;;;;;;;;;;;;13.21;76.32;100425.84;5115145;28;19966;-73
2021/09/08 01:55:14;;;;;;;;;;;;;;;13.22;76.13;100427.53;5114989;28;19924;-73
2021/09/08 01:57:43;;;;;;;;;;;;;;;13.24;76.19;100425.88;5115472;28;19924;-73
2021/09/08 02:00:13;;;;;;;;;;;;;;;13.23;76.40;100428.41;5115004;28;19927;-73
2021/09/08 02:02:41;;;;;;;;;;;;;;;13.23;76.48;100428.41;5115099;28;20381;-73
2021/09/08 02:05:13;;;;;;;;;;;;;;;13.19;76.54;100426.69;5114742;28;20011;-73
2021/09/08 02:07:42;;;;;;;;;;;;;;;13.17;76.46;100428.41;5114177;28;20356;-73
2021/09/08 02:10:11;;;;;;;;;;;;;;;13.16;76.43;100427.56;5114940;28;19946;-73
2021/09/08 02:12:43;;;;;;;;;;;;;;;13.16;76.77;100431.81;5115441;28;20370;-73
2021/09/08 02:15:12;;;;;;;;;;;;;;;13.18;76.37;100425.84;5114675;28;19932;-73
2021/09/08 02:17:42;;;;;;;;;;;;;;;13.18;76.54;100419.84;5114793;28;20023;-72
2021/09/08 02:20:11;;;;;;;;;;;;;;;13.15;76.32;100422.44;5114783;27;20006;-73
2021/09/08 02:22:40;;;;;;;;;;;;;;;13.13;76.39;100421.56;5114791;28;20343;-72
2021/09/08 02:25:09;;;;;;;;;;;;;;;13.09;76.09;100415.59;5114805;28;19928;-73
2021/09/08 02:27:38;;;;;;;;;;;;;;;13.08;76.28;100416.44;5114572;28;19923;-73
2021/09/08 02:30:10;;;;;;;;;;;;;;;13.05;76.36;100418.94;5114658;28;20392;-73
2021/09/08 02:32:38;;;;;;;;;;;;;;;13.00;76.19;100410.44;5115283;28;19924;-72
2021/09/08 02:35:08;;;;;;;;;;;;;;;12.98;76.06;100412.09;5114491;28;19962;-72
2021/09/08 02:37:37;;;;;;;;;;;;;;;12.96;76.22;100418.94;5113574;28;19924;-72
2021/09/08 02:40:07;;;;;;;;;;;;;;;12.92;76.01;100419.81;5079603;28;20018;-72
2021/09/08 02:42:35;;;;;;;;;;;;;;;12.92;76.10;100412.13;5115024;28;20334;-72
2021/09/08 02:45:04;;;;;;;;;;;;;;;12.90;76.12;100416.38;5114409;28;19954;-73
2021/09/08 02:47:35;;;;;;;;;;;;;;;12.89;76.16;100406.13;5114218;28;19947;-72
2021/09/08 02:50:04;;;;;;;;;;;;;;;12.90;76.07;100403.56;5113237;28;19924;-73
2021/09/08 02:52:33;;;;;;;;;;;;;;;12.89;76.20;100406.97;5114355;28;20022;-72
2021/09/08 02:55:01;;;;;;;;;;;;;;;12.86;75.98;100412.09;5114597;28;19927;-72
2021/09/08 02:57:30;;;;;;;;;;;;;;;12.84;76.11;100403.56;5114352;28;19931;-73
2021/09/08 02:59:59;;;;;;;;;;;;;;;12.84;75.95;100403.56;5114294;28;20018;-73
2021/09/08 03:02:27;;;;;;;;;;;;;;;12.84;75.98;100403.56;5114331;28;19924;-72
2021/09/08 03:04:59;;;;;;;;;;;;;;;12.83;75.98;100401.84;5114490;28;19924;-72
2021/09/08 03:07:28;;;;;;;;;;;;;;;12.79;75.95;100400.13;5114508;28;19924;-73
2021/09/08 03:09:56;;;;;;;;;;;;;;;12.78;76.13;100406.97;5114294;28;20011;-72
2021/09/08 03:12:25;;;;;;;;;;;;;;;12.78;76.33;100398.44;5114798;28;19924;-72
2021/09/08 03:14:53;;;;;;;;;;;;;;;12.74;76.19;100406.97;5114405;28;19924;-72
2021/09/08 03:17:22;;;;;;;;;;;;;;;12.74;76.45;100404.41;5114214;28;19928;-73
2021/09/08 03:19:51;;;;;;;;;;;;;;;12.76;76.43;100400.13;5114097;28;19930;-72
2021/09/08 03:22:22;;;;;;;;;;;;;;;12.79;76.52;100397.56;5118238;28;20365;-72
2021/09/08 03:24:50;;;;;;;;;;;;;;;12.79;76.69;100405.25;5118463;28;20375;-72
2021/09/08 03:27:20;;;;;;;;;;;;;;;12.78;76.52;100403.56;5117776;28;19959;-72
2021/09/08 03:29:48;;;;;;;;;;;;;;;12.77;76.72;100396.72;5117997;28;19970;-72
2021/09/08 03:32:17;;;;;;;;;;;;;;;12.78;76.43;100393.31;5118323;28;20361;-72
2021/09/08 03:34:46;;;;;;;;;;;;;;;12.77;76.56;100394.16;5117811;28;19924;-72
2021/09/08 03:37:15;;;;;;;;;;;;;;;12.77;76.68;100396.72;5117851;28;20292;-72
2021/09/08 03:39:45;;;;;;;;;;;;;;;12.77;76.77;100401.81;5117816;28;19928;-72
2021/09/08 03:42:13;;;;;;;;;;;;;;;12.78;76.79;100398.44;5117804;28;19927;-72
2021/09/08 03:44:42;;;;;;;;;;;;;;;12.67;76.70;100398.41;5117593;28;19966;-72
2021/09/08 03:47:11;;;;;;;;;;;;;;;12.60;76.96;100399.22;5117459;28;19924;-72
2021/09/08 03:49:39;;;;;;;;;;;;;;;12.67;77.15;100405.22;5117644;28;20374;-72
2021/09/08 03:52:08;;;;;;;;;;;;;;;12.71;77.16;100404.41;5117363;28;19923;-72
2021/09/08 03:54:37;;;;;;;;;;;;;;;12.75;77.10;100403.53;5117786;28;20018;-72
2021/09/08 03:57:07;;;;;;;;;;;;;;;12.76;77.22;100398.41;5117701;28;19923;-72
2021/09/08 03:59:36;;;;;;;;;;;;;;;12.79;77.08;100400.13;5117438;28;19924;-72
2021/09/08 04:02:05;;;;;;;;;;;;;;;12.72;77.08;100403.53;5117599;28;20338;-72
2021/09/08 04:04:36;;;;;;;;;;;;;;;12.73;77.21;100402.69;5117426;28;19924;-72
2021/09/08 04:07:06;;;;;;;;;;;;;;;12.77;77.20;100404.38;5117494;28;19946;-72
2021/09/08 04:09:35;;;;;;;;;;;;;;;12.77;77.06;100406.94;5098591;28;19924;-72
2021/09/08 04:12:04;;;;;;;;;;;;;;;12.77;77.09;100406.94;5117170;28;19928;-72
2021/09/08 04:14:34;;;;;;;;;;;;;;;12.74;76.93;100410.38;5117452;28;19976;-72
2021/09/08 04:17:03;;;;;;;;;;;;;;;12.76;76.91;100416.34;5116099;28;19927;-72
2021/09/08 04:19:32;;;;;;;;;;;;;;;12.73;77.10;100406.09;5117036;28;19977;-72
2021/09/08 04:22:00;;;;;;;;;;;;;;;12.75;76.68;100409.53;5116968;28;20376;-72
2021/09/08 04:24:29;;;;;;;;;;;;;;;12.77;76.78;100414.63;5117286;28;19970;-72
2021/09/08 04:26:58;;;;;;;;;;;;;;;12.79;76.60;100412.94;5116733;27;19924;-72
2021/09/08 04:29:26;;;;;;;;;;;;;;;12.77;76.46;100422.31;5115877;28;20288;-72
2021/09/08 04:31:57;;;;;;;;;;;;;;;12.74;76.39;100412.09;5116448;28;19924;-72
2021/09/08 04:34:25;;;;;;;;;;;;;;;12.74;76.58;100415.50;5117612;28;19924;-72
2021/09/08 04:36:54;;;;;;;;;;;;;;;12.75;76.74;100416.34;5117040;28;20027;-72
2021/09/08 04:39:24;;;;;;;;;;;;;;;12.76;76.77;100415.50;5116423;28;19924;-72
2021/09/08 04:41:54;;;;;;;;;;;;;;;12.79;76.59;100412.94;5116984;28;19931;-72
2021/09/08 04:44:24;;;;;;;;;;;;;;;12.87;76.60;100413.81;5116835;28;19982;-72
2021/09/08 04:46:52;;;;;;;;;;;;;;;12.86;76.80;100411.25;5116561;28;19924;-72
2021/09/08 04:49:26;;;;;;;;;;;;;;;12.88;76.72;100410.41;5116518;28;19952;-72
2021/09/08 04:51:55;;;;;;;;;;;;;;;12.90;76.61;100413.81;5117109;28;19927;-72
2021/09/08 04:54:23;;;;;;;;;;;;;;;12.96;76.49;100407.84;5116610;28;19957;-72
2021/09/08 04:56:52;;;;;;;;;;;;;;;13.02;76.56;100412.97;5116532;28;19969;-72
2021/09/08 04:59:21;;;;;;;;;;;;;;;13.07;76.53;100416.44;5116797;28;20308;-72
2021/09/08 05:01:49;;;;;;;;;;;;;;;13.08;76.65;100411.31;5116165;28;20403;-72
2021/09/08 05:04:18;;;;;;;;;;;;;;;13.19;76.63;100413.88;5116456;28;19963;-71
2021/09/08 05:06:50;;;;;;;;;;;;;;;13.26;76.44;100415.59;5116077;28;20022;-71
2021/09/08 05:09:18;;;;;;;;;;;;;;;13.31;76.60;100417.31;5116122;28;19923;-71
2021/09/08 05:11:47;;;;;;;;;;;;;;;13.32;76.81;100418.16;5116491;27;20007;-71
2021/09/08 05:14:17;;;;;;;;;;;;;;;13.38;76.85;100424.16;5116290;28;20019;-71
2021/09/08 05:16:50;;;;;;;;;;;;;;;13.42;76.90;100425.84;5115906;28;19923;-72
2021/09/08 05:19:19;;;;;;;;;;;;;;;13.51;76.99;100424.16;5115974;28;19924;-72
2021/09/08 05:21:49;;;;;;;;;;;;;;;13.57;76.76;100430.13;5116032;28;19945;-72
2021/09/08 05:24:18;;;;;;;;;;;;;;;13.68;76.62;100427.53;5116051;28;19924;-72
2021/09/08 05:26:48;;;;;;;;;;;;;;;13.77;76.80;100432.66;5115684;28;20030;-72
2021/09/08 05:29:16;;;;;;;;;;;;;;;13.77;76.54;100436.06;5115765;28;20018;-71
2021/09/08 05:31:45;;;;;;;;;;;;;;;13.84;76.62;100426.66;5114277;28;19928;-72
2021/09/08 05:34:13;;;;;;;;;;;;;;;13.85;76.65;100436.06;5116073;28;20353;-72
2021/09/08 05:36:42;;;;;;;;;;;;;;;13.90;76.57;100431.75;5114527;28;19924;-72
2021/09/08 05:39:12;;;;;;;;;;;;;;;13.96;77.00;100430.03;5115240;28;20446;-72
2021/09/08 05:41:41;;;;;;;;;;;;;;;13.94;76.76;100431.75;5115456;28;19959;-72
2021/09/08 05:44:09;;;;;;;;;;;;;;;14.04;77.08;100435.16;5114950;28;20297;-72
2021/09/08 05:46:38;;;;;;;;;;;;;;;14.08;76.93;100434.31;5115505;28;19963;-71
2021/09/08 05:49:07;;;;;;;;;;;;;;;14.23;77.19;100436.81;5115172;28;20453;-71
2021/09/08 05:51:36;;;;;;;;;;;;;;;14.40;77.02;100437.63;5115402;28;20026;-72
2021/09/08 05:54:05;;;;;;;;;;;;;;;14.60;76.79;100440.97;5115410;28;20369;-72
2021/09/08 05:56:36;;;;;;;;;;;;;;;14.77;76.03;100434.03;5115151;28;19924;-71
2021/09/08 05:59:04;;;;;;;;;;;;;;;14.88;75.79;100435.66;5115451;28;19931;-71
2021/09/08 06:01:33;;;;;;;;;;;;;;;15.02;75.31;100436.47;5115000;28;19923;-72
2021/09/08 06:04:02;;;;;;;;;;;;;;;15.16;75.06;100439.78;5115008;28;19930;-72
2021/09/08 06:06:31;;;;;;;;;;;;;;;15.31;74.53;100437.94;5114951;28;19924;-71
2021/09/08 06:08:59;;;;;;;;;;;;;;;15.41;74.10;100436.16;5115123;28;20326;-73
2021/09/08 06:11:28;;;;;;;;;;;;;;;15.47;73.14;100438.72;5114760;28;19966;-74
2021/09/08 06:13:59;;;;;;;;;;;;;;;15.56;72.52;100443.78;5115162;28;19924;-73
2021/09/08 06:16:31;;;;;;;;;;;;;;;15.63;72.18;100445.44;5114725;28;19924;-74
2021/09/08 06:19:00;;;;;;;;;;;;;;;15.69;71.89;100435.06;5114740;28;19978;-73
2021/09/08 06:21:29;;;;;;;;;;;;;;;15.81;71.63;100442.66;5114588;28;19924;-74
2021/09/08 06:23:58;;;;;;;;;;;;;;;15.90;71.32;100434.88;5115138;28;20426;-73
2021/09/08 06:26:26;;;;;;;;;;;;;;;16.00;71.03;100436.47;5114526;28;19963;-73
2021/09/08 06:28:55;;;;;;;;;;;;;;;16.06;70.33;100436.41;5114446;28;20338;-73
2021/09/08 06:31:25;;;;;;;;;;;;;;;16.12;70.10;100435.50;5113237;28;20002;-73
2021/09/08 06:33:54;;;;;;;;;;;;;;;16.18;69.86;100434.56;5114477;28;20041;-73
2021/09/08 06:36:23;;;;;;;;;;;;;;;16.26;69.57;100438.78;5114818;28;19975;-73
2021/09/08 06:38:52;;;;;;;;;;;;;;;16.38;69.73;100432.63;5114197;28;20294;-73
2021/09/08 06:41:21;;;;;;;;;;;;;;;16.47;69.32;100430.78;5114448;28;20343;-73
2021/09/08 06:43:50;;;;;;;;;;;;;;;16.59;69.39;100428.06;5114333;28;19946;-73
2021/09/08 06:46:19;;;;;;;;;;;;;;;16.69;69.04;100423.66;5114396;28;19927;-73
2021/09/08 06:48:51;;;;;;;;;;;;;;;16.83;68.84;100419.16;5114415;28;19959;-73
2021/09/08 06:51:20;;;;;;;;;;;;;;;16.96;68.51;100431.00;5113089;28;19924;-74
2021/09/08 06:53:49;;;;;;;;;;;;;;;17.12;67.93;100424.72;5114285;28;19978;-73
2021/09/08 06:56:17;;;;;;;;;;;;;;;17.21;67.47;100429.75;5117354;28;20274;-75
2021/09/08 06:58:46;;;;;;;;;;;;;;;17.27;67.26;100432.25;5118411;28;19974;-74
2021/09/08 07:01:14;;;;;;;;;;;;;;;17.41;67.03;100429.44;5118475;28;20408;-75
2021/09/08 07:03:43;;;;;;;;;;;;;;;17.59;66.50;100436.06;5117200;28;19953;-75
2021/09/08 07:06:14;;;;;;;;;;;;;;;17.72;66.11;100433.22;5118436;28;19930;-74
2021/09/08 07:08:42;;;;;;;;;;;;;;;17.81;65.72;100434.78;5118598;28;19924;-75
2021/09/08 07:11:11;;;;;;;;;;;;;;;17.91;65.38;100428.56;5118242;28;19924;-75
2021/09/08 07:13:39;;;;;;;;;;;;;;;18.02;65.11;100432.66;5118231;28;19924;-75
2021/09/08 07:16:08;;;;;;;;;;;;;;;18.15;64.69;100427.25;5118184;28;19969;-73
2021/09/08 07:18:37;;;;;;;;;;;;;;;18.27;64.70;100433.03;5118158;28;19928;-75
2021/09/08 07:21:06;;;;;;;;;;;;;;;18.41;64.30;100431.03;5117943;28;19994;-74
2021/09/08 07:23:36;;;;;;;;;;;;;;;18.52;64.11;100434.25;5118076;28;19924;-74
2021/09/08 07:26:04;;;;;;;;;;;;;;;18.67;63.82;100439.13;5117916;28;19969;-75
2021/09/08 07:28:33;;;;;;;;;;;;;;;18.83;63.37;100436.19;5117822;28;20434;-75
2021/09/08 07:31:02;;;;;;;;;;;;;;;18.98;63.42;100433.28;5118143;28;19953;-75
2021/09/08 07:33:31;;;;;;;;;;;;;;;19.17;63.18;100437.16;5118154;28;19930;-75
2021/09/08 07:36:00;;;;;;;;;;;;;;;19.29;62.41;100434.25;5117871;28;20296;-74
2021/09/08 07:38:30;;;;;;;;;;;;;;;19.42;62.05;100433.09;5117461;28;19978;-75
2021/09/08 07:41:00;;;;;;;;;;;;;;;19.54;62.21;100440.56;5117693;28;19930;-73
2021/09/08 07:43:29;;;;;;;;;;;;;;;19.68;61.54;100437.59;5117818;28;19923;-75
2021/09/08 07:45:57;;;;;;;;;;;;;;;19.84;61.82;100439.75;5117632;28;19924;-76
2021/09/08 07:48:26;;;;;;;;;;;;;;;19.95;61.24;100436.91;5117612;28;20271;-74
2021/09/08 07:50:58;;;;;;;;;;;;;;;20.00;60.57;100448.84;5117353;28;20014;-75
2021/09/08 07:53:26;;;;;;;;;;;;;;;20.12;60.04;100439.03;5117755;28;20014;-75
2021/09/08 07:55:55;;;;;;;;;;;;;;;20.28;60.33;100437.72;5117417;28;20401;-73
2021/09/08 07:58:25;;;;;;;;;;;;;;;20.35;59.76;100427.16;5117698;28;19923;-75
2021/09/08 08:00:54;;;;;;;;;;;;;;;20.48;59.72;100432.84;5117798;28;20433;-75
2021/09/08 08:03:23;;;;;;;;;;;;;;;20.61;59.59;100435.03;5117221;28;19927;-75
2021/09/08 08:05:53;;;;;;;;;;;;;;;20.80;59.80;100437.09;5117143;28;19924;-74
